Time;durP1;ratioP1;P1;durP2;ratioP2;P2;SDS_P1;SDS_P2;PMS_P1;PMS_P2;Temp;Humidity;BMP_temperature;BMP_pressure;BME280_temperature;BME280_humidity;BME280_pressure;Samples;Min_cycle;Max_cycle;Signal;HPM_P1;HPM_P2
2023/12/25 00:01:50;;;;;;;40.90;34.10;;;19.10;91.30;;;;;;5013379;28;20045;-63
2023/12/25 00:04:16;;;;;;;40.22;33.30;;;19.00;92.60;;;;;;4996688;28;20077;-65
2023/12/25 00:06:42;;;;;;;35.47;29.70;;;18.90;92.60;;;;;;5001025;28;20522;-66
2023/12/25 00:09:08;;;;;;;32.63;27.45;;;19.00;92.70;;;;;;5013701;28;20404;-65
2023/12/25 00:11:34;;;;;;;28.88;25.77;;;19.10;92.70;;;;;;5013866;28;20041;-63
2023/12/25 00:13:59;;;;;;;30.20;24.98;;;18.90;92.70;;;;;;5014371;28;20498;-63
2023/12/25 00:16:26;;;;;;;29.85;23.70;;;;;;;;;;5012069;28;20140;-65
2023/12/25 00:18:52;;;;;;;25.55;21.20;;;18.70;92.70;;;;;;5014137;28;20082;-66
2023/12/25 00:21:19;;;;;;;26.25;20.02;;;18.80;92.70;;;;;;5014056;28;20403;-65
2023/12/25 00:23:45;;;;;;;23.45;19.10;;;18.90;92.70;;;;;;5014268;28;20046;-66
2023/12/25 00:26:11;;;;;;;23.02;17.33;;;;;;;;;;5010653;28;20041;-66
2023/12/25 00:28:36;;;;;;;22.75;16.92;;;18.80;92.70;;;;;;5012797;28;20052;-63
2023/12/25 00:31:02;;;;;;;20.08;15.82;;;18.90;92.70;;;;;;5014066;28;20046;-63
2023/12/25 00:33:28;;;;;;;20.23;15.13;;;;;;;;;;5012901;28;20052;-63
2023/12/25 00:35:54;;;;;;;19.27;14.05;;;18.90;92.60;;;;;;5013257;28;20070;-62
2023/12/25 00:38:20;;;;;;;17.27;13.32;;;18.90;92.60;;;;;;5012162;28;20073;-68
2023/12/25 00:40:45;;;;;;;16.90;12.52;;;18.80;92.60;;;;;;5012868;28;20033;-67
2023/12/25 00:43:12;;;;;;;17.67;11.45;;;;;;;;;;5012807;28;20049;-67
2023/12/25 00:45:38;;;;;;;16.08;11.65;;;19.00;91.40;;;;;;5045577;28;20053;-63
2023/12/25 00:48:04;;;;;;;16.02;10.95;;;19.00;92.50;;;;;;5043459;28;20057;-63
2023/12/25 00:50:30;;;;;;;15.38;10.20;;;19.00;92.60;;;;;;5013553;28;20050;-62
2023/12/25 00:52:56;;;;;;;14.93;9.60;;;19.00;92.50;;;;;;5045448;28;20050;-63
2023/12/25 00:55:22;;;;;;;14.50;9.73;;;;;;;;;;5043923;28;20053;-63
2023/12/25 00:57:48;;;;;;;13.48;8.63;;;;;;;;;;5013015;28;20124;-62
2023/12/25 01:00:14;;;;;;;12.95;7.75;;;18.80;92.40;;;;;;5012760;28;20045;-64
2023/12/25 01:02:40;;;;;;;14.10;8.18;;;18.70;92.40;;;;;;5013213;28;20476;-62
2023/12/25 01:05:06;;;;;;;11.80;7.18;;;19.00;92.50;;;;;;5013682;28;20050;-63
2023/12/25 01:07:32;;;;;;;14.32;7.85;;;18.90;92.40;;;;;;4994982;28;20050;-62
2023/12/25 01:09:58;;;;;;;12.57;6.47;;;;;;;;;;5013690;28;20052;-63
2023/12/25 01:12:23;;;;;;;11.57;6.15;;;18.80;92.40;;;;;;5012000;28;20041;-63
2023/12/25 01:14:49;;;;;;;11.10;5.93;;;18.90;92.40;;;;;;5012680;28;20635;-62
2023/12/25 01:17:15;;;;;;;11.40;5.30;;;18.90;92.30;;;;;;5011990;28;20112;-63
2023/12/25 01:19:41;;;;;;;11.45;6.00;;;19.10;92.40;;;;;;5011637;28;20495;-63
2023/12/25 01:22:07;;;;;;;10.40;5.70;;;;;;;;;;5013444;28;20121;-63
2023/12/25 01:24:33;;;;;;;8.43;4.70;;;18.90;92.30;;;;;;5013539;28;20159;-62
2023/12/25 01:26:58;;;;;;;10.85;5.20;;;18.90;91.70;;;;;;5010125;28;20049;-62
2023/12/25 01:29:24;;;;;;;10.27;4.45;;;18.90;92.30;;;;;;5012445;28;20124;-62
2023/12/25 01:31:50;;;;;;;9.10;4.75;;;18.90;92.30;;;;;;5012196;28;20042;-62
2023/12/25 01:34:16;;;;;;;9.77;4.57;;;19.00;91.70;;;;;;5013227;28;20052;-63
2023/12/25 01:36:42;;;;;;;8.43;4.05;;;;;;;;;;5011799;28;20042;-63
2023/12/25 01:39:08;;;;;;;7.93;3.78;;;18.90;92.30;;;;;;5009180;28;20103;-63
2023/12/25 01:41:33;;;;;;;10.18;4.30;;;19.00;92.40;;;;;;5012398;28;20057;-62
2023/12/25 01:43:59;;;;;;;8.20;3.70;;;19.00;91.50;;;;;;5012957;28;20049;-63
2023/12/25 01:46:25;;;;;;;7.65;3.70;;;18.80;92.40;;;;;;5013157;28;20037;-64
2023/12/25 01:48:51;;;;;;;7.97;3.60;;;18.90;92.40;;;;;;5010159;28;20046;-62
2023/12/25 01:51:22;;;;;;;8.93;3.78;;;18.90;92.40;;;;;;5012386;28;20404;-63
2023/12/25 01:53:48;;;;;;;8.52;3.78;;;18.90;92.40;;;;;;4976681;28;20053;-63
2023/12/25 01:56:13;;;;;;;6.93;3.25;;;18.80;92.40;;;;;;5042135;28;20046;-62
2023/12/25 01:58:40;;;;;;;9.73;3.72;;;;;;;;;;5011112;28;20049;-63
2023/12/25 02:01:05;;;;;;;6.25;2.75;;;18.70;92.40;;;;;;5010537;28;20136;-63
2023/12/25 02:03:31;;;;;;;7.82;3.58;;;18.70;92.40;;;;;;5013068;28;20448;-62
2023/12/25 02:05:57;;;;;;;5.88;2.35;;;18.80;92.50;;;;;;5011192;28;20507;-62
2023/12/25 02:08:23;;;;;;;6.80;2.90;;;18.80;92.50;;;;;;5010565;28;20502;-63
2023/12/25 02:10:48;;;;;;;7.88;3.33;;;18.70;92.50;;;;;;5011166;28;20050;-63
2023/12/25 02:13:14;;;;;;;7.00;2.53;;;18.60;92.50;;;;;;5012567;28;20042;-64
2023/12/25 02:15:41;;;;;;;6.05;2.67;;;;;;;;;;5011536;28;20168;-64
2023/12/25 02:18:07;;;;;;;6.13;2.42;;;18.60;92.50;;;;;;5011893;28;20397;-64
2023/12/25 02:20:33;;;;;;;6.78;2.70;;;18.80;92.60;;;;;;5008673;28;20053;-64
2023/12/25 02:22:59;;;;;;;6.57;2.40;;;18.60;92.60;;;;;;5027731;28;20399;-64
2023/12/25 02:25:36;;;;;;;7.03;2.53;;;18.50;92.60;;;;;;5012679;28;20411;-63
2023/12/25 02:28:02;;;;;;;5.90;2.47;;;18.70;92.70;;;;;;5010903;28;20140;-62
2023/12/25 02:30:28;;;;;;;7.53;2.70;;;18.50;92.60;;;;;;4992831;28;20049;-63
2023/12/25 02:32:54;;;;;;;7.25;2.15;;;18.60;92.70;;;;;;5014313;28;20046;-63
2023/12/25 02:35:20;;;;;;;6.72;2.42;;;18.50;92.70;;;;;;5006906;28;20130;-63
2023/12/25 02:37:46;;;;;;;9.27;2.72;;;;;;;;;;5015301;28;20458;-65
2023/12/25 02:40:12;;;;;;;7.47;2.75;;;18.60;92.80;;;;;;5015416;28;20048;-65
2023/12/25 02:42:38;;;;;;;7.15;2.45;;;;;;;;;;5013310;28;21037;-66
2023/12/25 02:45:04;;;;;;;6.85;2.30;;;18.40;92.80;;;;;;5046522;28;20125;-64
2023/12/25 02:47:30;;;;;;;6.22;2.30;;;18.50;92.80;;;;;;5015786;28;20053;-63
2023/12/25 02:49:56;;;;;;;6.35;2.42;;;18.50;92.80;;;;;;5015691;28;20042;-65
2023/12/25 02:52:22;;;;;;;6.53;2.58;;;;;;;;;;5014535;28;20410;-63
2023/12/25 02:54:48;;;;;;;6.63;2.28;;;18.50;92.90;;;;;;5014104;28;20404;-64
2023/12/25 02:57:13;;;;;;;6.50;2.13;;;18.40;92.90;;;;;;5015993;28;20042;-65
2023/12/25 02:59:39;;;;;;;5.78;1.92;;;18.20;92.80;;;;;;5029769;28;20491;-63
2023/12/25 03:02:05;;;;;;;6.28;2.00;;;18.40;92.90;;;;;;5014673;28;20482;-63
2023/12/25 03:04:31;;;;;;;5.53;1.90;;;18.30;92.90;;;;;;5013078;28;20029;-65
2023/12/25 03:06:57;;;;;;;6.28;1.92;;;18.40;92.90;;;;;;5015804;28;20491;-64
2023/12/25 03:09:23;;;;;;;6.80;2.10;;;;;;;;;;5046738;28;20112;-64
2023/12/25 03:11:49;;;;;;;6.18;2.08;;;18.30;92.90;;;;;;5015373;28;20049;-65
2023/12/25 03:14:14;;;;;;;5.20;1.77;;;18.30;92.90;;;;;;5014943;28;20139;-65
2023/12/25 03:16:40;;;;;;;5.78;2.05;;;18.30;93.00;;;;;;4997983;28;20058;-66
2023/12/25 03:19:06;;;;;;;6.20;2.30;;;18.20;93.00;;;;;;5014280;28;20077;-65
2023/12/25 03:21:32;;;;;;;7.03;2.38;;;18.30;93.00;;;;;;5021556;28;20049;-63
2023/12/25 03:23:58;;;;;;;9.32;2.40;;;;;;;;;;5011523;28;20037;-63
2023/12/25 03:26:24;;;;;;;5.25;2.10;;;18.40;92.40;;;;;;5011062;28;20080;-61
2023/12/25 03:28:49;;;;;;;6.40;2.00;;;18.10;93.00;;;;;;5015271;28;20129;-62
2023/12/25 03:31:15;;;;;;;7.40;2.10;;;18.20;93.00;;;;;;5013900;28;20093;-63
2023/12/25 03:33:41;;;;;;;6.72;2.08;;;18.10;93.00;;;;;;5014329;28;20057;-62
2023/12/25 03:36:07;;;;;;;6.30;2.00;;;18.20;93.10;;;;;;5029823;28;20049;-62
2023/12/25 03:38:33;;;;;;;7.10;2.20;;;18.10;93.00;;;;;;4997497;28;20160;-63
2023/12/25 03:40:59;;;;;;;6.55;2.20;;;;;;;;;;5030287;28;20141;-63
2023/12/25 03:43:25;;;;;;;6.60;2.17;;;;;;;;;;4997574;28;20508;-63
2023/12/25 03:45:52;;;;;;;5.28;1.98;;;18.10;93.10;;;;;;5012832;28;20045;-62
2023/12/25 03:48:20;;;;;;;5.50;1.90;;;17.90;93.10;;;;;;5029746;28;20085;-62
2023/12/25 03:50:46;;;;;;;7.88;2.20;;;18.00;93.20;;;;;;5013041;28;20042;-63
2023/12/25 03:53:11;;;;;;;6.50;1.95;;;18.10;93.20;;;;;;5013562;28;20060;-62
2023/12/25 03:55:37;;;;;;;6.32;2.28;;;18.10;93.30;;;;;;5013176;28;20046;-62
2023/12/25 03:58:03;;;;;;;5.22;1.77;;;18.20;93.30;;;;;;5046650;28;20125;-62
2023/12/25 04:00:29;;;;;;;7.45;2.22;;;18.10;93.30;;;;;;5046114;28;20050;-61
2023/12/25 04:02:56;;;;;;;6.72;1.88;;;18.10;92.40;;;;;;5013326;28;20045;-62
2023/12/25 04:05:23;;;;;;;7.60;1.88;;;18.10;93.30;;;;;;5011593;28;20053;-62
2023/12/25 04:07:49;;;;;;;6.50;2.28;;;17.90;93.30;;;;;;5014501;28;20104;-63
2023/12/25 04:10:16;;;;;;;6.63;1.88;;;17.90;92.30;;;;;;5014529;28;20050;-63
2023/12/25 04:12:42;;;;;;;6.43;2.08;;;18.00;93.30;;;;;;5028852;28;20108;-63
2023/12/25 04:15:08;;;;;;;8.80;2.03;;;18.00;93.30;;;;;;5013962;28;20053;-63
2023/12/25 04:17:34;;;;;;;7.68;2.38;;;18.10;93.40;;;;;;5045808;28;20076;-62
2023/12/25 04:20:00;;;;;;;6.00;2.13;;;17.90;93.30;;;;;;5013979;28;20054;-64
2023/12/25 04:22:26;;;;;;;6.28;1.83;;;17.90;92.90;;;;;;5029527;28;20088;-62
2023/12/25 04:24:52;;;;;;;7.68;2.08;;;17.90;93.40;;;;;;5014084;28;20496;-62
2023/12/25 04:27:18;;;;;;;6.82;2.65;;;18.20;93.50;;;;;;5044358;28;20403;-63
2023/12/25 04:29:44;;;;;;;6.57;2.00;;;17.90;93.40;;;;;;5014029;28;20085;-64
2023/12/25 04:32:10;;;;;;;6.25;2.22;;;;;;;;;;5013040;28;20396;-63
2023/12/25 04:34:36;;;;;;;7.97;2.03;;;18.20;92.20;;;;;;5013506;28;20042;-62
2023/12/25 04:37:02;;;;;;;6.45;2.03;;;17.90;93.50;;;;;;5013063;28;20080;-62
2023/12/25 04:39:28;;;;;;;6.75;2.20;;;17.80;93.50;;;;;;5013647;28;20484;-62
2023/12/25 04:41:54;;;;;;;7.63;2.20;;;17.80;93.50;;;;;;5014145;28;20033;-62
2023/12/25 04:44:20;;;;;;;6.30;1.98;;;17.70;93.50;;;;;;5045885;28;20109;-62
2023/12/25 04:46:46;;;;;;;5.18;1.83;;;17.90;93.60;;;;;;5045191;28;20049;-63
2023/12/25 04:49:12;;;;;;;5.80;1.92;;;;;;;;;;5013358;28;20101;-64
2023/12/25 04:51:39;;;;;;;5.55;2.15;;;;;;;;;;5013411;28;20447;-62
2023/12/25 04:54:05;;;;;;;4.90;1.48;;;17.70;93.60;;;;;;5014015;28;20135;-63
2023/12/25 04:56:31;;;;;;;6.25;2.00;;;17.80;93.60;;;;;;5012965;28;20062;-62
2023/12/25 04:58:58;;;;;;;6.63;1.85;;;;;;;;;;5013176;28;20046;-65
2023/12/25 05:01:23;;;;;;;7.15;1.83;;;17.80;93.50;;;;;;5013491;28;20053;-63
2023/12/25 05:03:49;;;;;;;5.43;2.03;;;17.80;93.60;;;;;;5013402;28;20034;-63
2023/12/25 05:06:15;;;;;;;6.72;2.03;;;;;;;;;;5012228;28;20053;-63
2023/12/25 05:08:41;;;;;;;5.10;1.70;;;17.80;93.70;;;;;;5011588;28;20096;-63
2023/12/25 05:11:07;;;;;;;5.63;1.95;;;17.50;93.70;;;;;;5045568;28;20049;-62
2023/12/25 05:13:32;;;;;;;7.20;1.90;;;17.60;93.70;;;;;;5044823;28;20057;-64
2023/12/25 05:15:58;;;;;;;7.70;2.05;;;17.90;92.60;;;;;;5011024;28;20061;-63
2023/12/25 05:18:24;;;;;;;5.80;2.10;;;17.80;93.80;;;;;;5011310;28;20116;-64
2023/12/25 05:20:50;;;;;;;6.55;1.80;;;17.60;93.80;;;;;;5011868;28;20054;-64
2023/12/25 05:23:15;;;;;;;6.18;1.98;;;17.60;93.80;;;;;;5012158;28;20056;-65
2023/12/25 05:25:41;;;;;;;6.10;1.83;;;17.60;93.80;;;;;;5012153;28;20553;-64
2023/12/25 05:28:07;;;;;;;7.00;2.45;;;17.40;93.70;;;;;;5012155;28;20041;-63
2023/12/25 05:30:33;;;;;;;8.43;2.10;;;17.70;93.80;;;;;;5042850;28;20045;-63
2023/12/25 05:32:59;;;;;;;7.97;2.00;;;;;;;;;;5044694;28;20042;-63
2023/12/25 05:35:25;;;;;;;5.70;2.08;;;17.70;93.90;;;;;;5044701;28;20080;-64
2023/12/25 05:37:50;;;;;;;7.38;2.00;;;17.70;93.90;;;;;;5012047;28;20072;-65
2023/12/25 05:40:16;;;;;;;5.30;1.77;;;17.50;93.80;;;;;;5010271;28;20042;-64
2023/12/25 05:42:42;;;;;;;6.38;1.88;;;17.60;93.90;;;;;;5012891;28;20056;-64
2023/12/25 05:45:08;;;;;;;6.30;2.00;;;17.70;94.00;;;;;;5013227;28;20041;-63
2023/12/25 05:47:34;;;;;;;8.90;2.25;;;17.60;94.00;;;;;;5013040;28;20073;-63
2023/12/25 05:49:59;;;;;;;6.47;2.33;;;17.60;93.40;;;;;;5010942;28;20054;-65
2023/12/25 05:52:25;;;;;;;8.18;2.10;;;17.60;94.00;;;;;;5013013;28;20498;-65
2023/12/25 05:54:51;;;;;;;8.93;2.22;;;17.50;94.00;;;;;;5011418;28;20050;-65
2023/12/25 05:57:17;;;;;;;5.55;2.10;;;17.60;94.10;;;;;;5013090;28;20034;-64
2023/12/25 05:59:43;;;;;;;6.93;2.00;;;17.50;94.10;;;;;;5010606;28;20049;-65
2023/12/25 06:02:11;;;;;;;6.88;2.22;;;17.40;94.10;;;;;;5044860;28;20120;-65
2023/12/25 06:04:37;;;;;;;6.00;2.10;;;17.60;94.10;;;;;;5027301;28;20108;-64
2023/12/25 06:07:03;;;;;;;4.90;1.67;;;17.50;94.10;;;;;;5044688;28;20050;-63
2023/12/25 06:09:29;;;;;;;4.93;1.50;;;17.40;94.00;;;;;;5014628;28;20117;-65
2023/12/25 06:11:55;;;;;;;5.90;1.90;;;17.60;94.10;;;;;;5016534;28;20516;-65
2023/12/25 06:14:21;;;;;;;6.00;1.75;;;17.50;94.20;;;;;;5048533;28;20064;-64
2023/12/25 06:16:47;;;;;;;6.07;1.90;;;17.40;94.10;;;;;;5016241;28;20050;-62
2023/12/25 06:19:13;;;;;;;7.32;2.08;;;17.40;94.20;;;;;;5015929;28;20046;-62
2023/12/25 06:21:39;;;;;;;6.75;2.22;;;17.40;92.90;;;;;;5015130;28;20099;-64
2023/12/25 06:24:05;;;;;;;7.43;2.13;;;17.50;94.20;;;;;;5016278;28;20062;-62
2023/12/25 06:26:30;;;;;;;5.93;2.03;;;17.50;94.20;;;;;;5016497;28;20107;-62
2023/12/25 06:28:56;;;;;;;6.88;2.15;;;;;;;;;;5016055;28;20038;-62
2023/12/25 06:31:22;;;;;;;6.68;2.08;;;17.50;94.20;;;;;;5013568;28;20037;-63
2023/12/25 06:33:48;;;;;;;7.90;2.10;;;17.50;94.30;;;;;;5015076;28;20045;-62
2023/12/25 06:36:14;;;;;;;7.32;2.20;;;17.50;94.30;;;;;;5016528;28;20044;-62
2023/12/25 06:38:40;;;;;;;5.18;1.83;;;;;;;;;;5014826;28;20396;-62
2023/12/25 06:41:05;;;;;;;8.80;1.95;;;17.40;94.30;;;;;;5015583;28;20095;-63
2023/12/25 06:43:32;;;;;;;6.70;2.28;;;;;;;;;;5048288;28;20536;-64
2023/12/25 06:45:57;;;;;;;7.60;2.28;;;17.30;94.30;;;;;;5015311;28;20046;-63
2023/12/25 06:48:23;;;;;;;6.53;1.90;;;17.30;94.30;;;;;;5048036;28;20041;-63
2023/12/25 06:50:49;;;;;;;6.97;1.77;;;17.40;94.40;;;;;;5016132;28;20464;-63
2023/12/25 06:53:15;;;;;;;6.28;2.05;;;17.20;94.30;;;;;;5015368;28;20042;-63
2023/12/25 06:55:40;;;;;;;7.28;1.77;;;17.30;94.40;;;;;;5014874;28;20050;-62
2023/12/25 06:58:06;;;;;;;6.70;1.95;;;17.40;94.40;;;;;;5031402;28;20044;-64
2023/12/25 07:00:32;;;;;;;7.70;1.90;;;;;;;;;;5030442;28;20468;-63
2023/12/25 07:02:58;;;;;;;5.50;1.90;;;17.30;94.40;;;;;;5015359;28;20048;-63
2023/12/25 07:05:24;;;;;;;4.60;1.90;;;17.10;94.40;;;;;;5015732;28;20411;-67
2023/12/25 07:07:50;;;;;;;5.63;1.90;;;17.20;94.40;;;;;;5015926;28;20045;-66
2023/12/25 07:10:16;;;;;;;5.95;1.52;;;17.30;94.50;;;;;;5015286;28;20046;-65
2023/12/25 07:12:42;;;;;;;6.20;1.90;;;;;;;;;;5015295;28;20117;-65
2023/12/25 07:15:08;;;;;;;6.13;2.05;;;;;;;;;;5015598;28;20088;-65
2023/12/25 07:17:34;;;;;;;6.63;2.00;;;17.30;94.50;;;;;;5014995;28;20136;-66
2023/12/25 07:20:00;;;;;;;6.13;2.00;;;17.30;94.50;;;;;;5013594;28;20137;-64
2023/12/25 07:22:27;;;;;;;6.53;1.90;;;17.20;94.50;;;;;;5014826;28;20049;-65
2023/12/25 07:24:53;;;;;;;4.57;1.77;;;;;;;;;;5014886;28;20046;-66
2023/12/25 07:27:19;;;;;;;7.10;2.20;;;;;;;;;;5015651;28;20128;-63
2023/12/25 07:29:45;;;;;;;7.50;2.38;;;17.20;94.60;;;;;;5047161;28;20049;-63
2023/12/25 07:32:11;;;;;;;6.28;2.15;;;17.20;94.60;;;;;;5030329;28;20499;-65
2023/12/25 07:34:37;;;;;;;8.30;2.38;;;17.30;94.60;;;;;;5046409;28;20042;-64
2023/12/25 07:37:03;;;;;;;6.32;1.90;;;17.10;94.60;;;;;;5013082;28;20041;-64
2023/12/25 07:39:30;;;;;;;11.05;2.30;;;;;;;;;;5015255;28;20037;-66
2023/12/25 07:41:56;;;;;;;6.82;2.10;;;17.30;94.70;;;;;;5015276;28;20057;-64
2023/12/25 07:44:22;;;;;;;6.90;2.10;;;17.30;93.40;;;;;;5012846;28;20129;-64
2023/12/25 07:46:48;;;;;;;7.28;1.98;;;17.00;94.60;;;;;;5046818;28;20180;-63
2023/12/25 07:49:14;;;;;;;8.15;2.17;;;17.30;94.70;;;;;;5015038;28;20052;-65
2023/12/25 07:51:40;;;;;;;5.47;1.77;;;17.30;94.50;;;;;;5045888;28;20089;-63
2023/12/25 07:54:05;;;;;;;6.82;2.17;;;17.20;94.70;;;;;;5013518;28;20483;-65
2023/12/25 07:56:31;;;;;;;6.78;1.98;;;17.20;94.70;;;;;;5012872;28;20045;-64
2023/12/25 07:58:57;;;;;;;6.63;2.13;;;17.20;94.70;;;;;;5014755;28;20046;-62
2023/12/25 08:01:23;;;;;;;8.45;2.50;;;17.20;94.70;;;;;;4980830;28;20045;-63
2023/12/25 08:03:50;;;;;;;8.57;2.00;;;;;;;;;;5011232;28;20112;-64
2023/12/25 08:06:16;;;;;;;6.32;2.33;;;17.20;94.70;;;;;;5029050;28;20050;-66
2023/12/25 08:08:43;;;;;;;6.15;2.10;;;17.10;94.70;;;;;;5025682;28;20046;-67
2023/12/25 08:11:12;;;;;;;7.22;2.22;;;17.20;93.60;;;;;;5026247;28;20046;-66
2023/12/25 08:13:39;;;;;;;8.35;2.10;;;;;;;;;;4995297;28;20045;-63
2023/12/25 08:16:05;;;;;;;10.20;2.45;;;;;;;;;;5005652;28;20050;-61
2023/12/25 08:18:31;;;;;;;10.35;2.70;;;17.30;94.00;;;;;;5005290;28;20393;-63
2023/12/25 08:20:57;;;;;;;142.85;129.55;;;17.30;94.60;;;;;;5040397;28;20129;-60
2023/12/25 08:23:23;;;;;;;153.98;138.80;;;17.40;94.30;;;;;;5010527;28;20129;-63
2023/12/25 08:25:48;;;;;;;268.88;191.13;;;17.30;94.70;;;;;;5011293;28;20133;-63
2023/12/25 08:28:14;;;;;;;280.90;248.13;;;17.60;94.80;;;;;;5012235;28;20042;-62
2023/12/25 08:30:40;;;;;;;304.17;273.73;;;17.40;94.70;;;;;;5010408;28;20494;-64
2023/12/25 08:33:09;;;;;;;289.20;261.42;;;17.60;94.60;;;;;;5010397;28;20121;-64
2023/12/25 08:35:34;;;;;;;266.17;239.45;;;17.70;94.50;;;;;;5013177;28;20117;-63
2023/12/25 08:38:00;;;;;;;241.73;218.95;;;;;;;;;;5010238;28;20104;-61
2023/12/25 08:40:27;;;;;;;219.18;198.38;;;;;;;;;;5012208;28;20087;-61
2023/12/25 08:42:53;;;;;;;203.02;182.63;;;18.30;94.20;;;;;;5012535;28;20045;-62
2023/12/25 08:45:19;;;;;;;211.90;190.98;;;18.30;93.90;;;;;;4992973;28;20185;-64
2023/12/25 08:47:48;;;;;;;166.40;149.85;;;;;;;;;;5009308;28;20108;-65
2023/12/25 08:50:14;;;;;;;149.25;135.60;;;18.60;93.30;;;;;;5006026;28;20049;-64
2023/12/25 08:52:40;;;;;;;119.00;107.93;;;18.70;93.30;;;;;;4995031;28;20116;-63
2023/12/25 08:55:06;;;;;;;119.75;108.93;;;18.90;93.20;;;;;;5011973;28;20046;-64
2023/12/25 08:57:35;;;;;;;102.63;93.18;;;19.20;91.70;;;;;;5013554;28;20124;-64
2023/12/25 09:00:05;;;;;;;93.13;84.90;;;19.10;92.80;;;;;;5017896;28;20406;-64
2023/12/25 09:02:32;;;;;;;85.13;77.35;;;19.10;92.60;;;;;;5020473;28;20125;-64
2023/12/25 09:04:58;;;;;;;73.63;67.60;;;;;;;;;;5007592;28;20453;-64
2023/12/25 09:07:23;;;;;;;71.20;64.78;;;19.50;92.30;;;;;;5019312;28;20072;-63
2023/12/25 09:09:49;;;;;;;78.03;71.15;;;19.50;92.10;;;;;;4993585;28;20660;-63
2023/12/25 09:12:15;;;;;;;143.45;131.02;;;19.60;92.00;;;;;;5007416;28;20133;-61
2023/12/25 09:14:41;;;;;;;105.78;96.32;;;19.50;91.90;;;;;;5012328;28;20108;-61
2023/12/25 09:17:07;;;;;;;92.68;85.28;;;19.70;91.80;;;;;;5012092;28;20115;-65
2023/12/25 09:19:33;;;;;;;82.53;75.60;;;;;;;;;;5018538;28;20064;-65
2023/12/25 09:21:59;;;;;;;80.38;73.25;;;19.80;91.50;;;;;;5016702;28;20056;-65
2023/12/25 09:24:25;;;;;;;71.53;65.10;;;19.90;91.40;;;;;;5010629;28;20045;-64
2023/12/25 09:26:53;;;;;;;66.88;61.30;;;20.10;91.30;;;;;;5045094;28;20400;-63
2023/12/25 09:29:19;;;;;;;60.90;55.60;;;;;;;;;;5012215;28;20049;-67
2023/12/25 09:31:45;;;;;;;56.95;52.10;;;;;;;;;;5028366;28;20045;-63
2023/12/25 09:34:11;;;;;;;54.95;50.15;;;20.30;90.80;;;;;;5042136;28;20057;-66
2023/12/25 09:36:37;;;;;;;49.78;45.67;;;20.40;90.70;;;;;;5014055;28;20042;-64
2023/12/25 09:39:03;;;;;;;46.88;42.97;;;20.20;90.60;;;;;;5017107;28;20503;-63
2023/12/25 09:41:32;;;;;;;43.40;39.47;;;;;;;;;;5014120;28;20054;-66
2023/12/25 09:43:59;;;;;;;40.42;36.80;;;20.30;90.40;;;;;;5009742;28;20508;-63
2023/12/25 09:46:25;;;;;;;35.78;32.30;;;20.20;89.70;;;;;;5010815;28;20124;-64
2023/12/25 09:48:51;;;;;;;34.78;31.70;;;20.20;90.30;;;;;;5004319;28;20527;-65
2023/12/25 09:51:20;;;;;;;33.65;30.42;;;20.20;90.20;;;;;;4976881;28;20046;-63
2023/12/25 09:53:45;;;;;;;32.72;29.88;;;20.20;90.20;;;;;;5011245;28;20112;-64
2023/12/25 09:56:12;;;;;;;47.33;43.33;;;20.00;90.10;;;;;;4994373;28;20492;-65
2023/12/25 09:58:38;;;;;;;44.25;40.55;;;20.00;90.10;;;;;;5011502;28;20503;-64
2023/12/25 10:01:04;;;;;;;31.25;28.48;;;20.20;90.00;;;;;;5010133;28;20381;-64
2023/12/25 10:03:31;;;;;;;25.98;23.33;;;20.00;86.20;;;;;;5010459;28;20077;-66
2023/12/25 10:05:58;;;;;;;24.35;21.85;;;;;;;;;;5044089;28;20552;-65
2023/12/25 10:08:24;;;;;;;24.05;18.70;;;;;;;;;;5012314;28;20050;-63
2023/12/25 10:10:54;;;;;;;17.27;14.65;;;20.00;88.80;;;;;;5009748;28;20042;-65
2023/12/25 10:13:22;;;;;;;20.35;14.60;;;19.90;88.60;;;;;;5010548;28;20992;-64
2023/12/25 10:15:48;;;;;;;26.77;24.00;;;19.90;88.50;;;;;;5044573;28;20424;-64
2023/12/25 10:18:15;;;;;;;25.30;22.02;;;20.00;88.40;;;;;;5011146;28;20134;-64
2023/12/25 10:20:41;;;;;;;24.02;19.75;;;;;;;;;;5042802;28;20735;-64
2023/12/25 10:23:13;;;;;;;23.55;19.10;;;19.80;88.30;;;;;;5010930;28;20124;-64
2023/12/25 10:25:44;;;;;;;24.33;18.33;;;19.80;88.40;;;;;;5044224;28;20042;-65
2023/12/25 10:28:10;;;;;;;21.88;17.92;;;19.80;88.40;;;;;;5012502;28;20100;-64
2023/12/25 10:30:36;;;;;;;22.30;17.13;;;;;;;;;;5009919;28;20041;-65
2023/12/25 10:33:13;;;;;;;23.52;17.17;;;19.90;86.00;;;;;;5011007;28;20527;-66
2023/12/25 10:35:39;;;;;;;24.67;16.33;;;19.80;88.60;;;;;;5011137;28;20426;-63
2023/12/25 10:38:05;;;;;;;27.00;14.60;;;19.70;88.60;;;;;;5010161;28;20088;-64
2023/12/25 10:40:32;;;;;;;21.80;14.60;;;19.70;88.60;;;;;;5010518;28;20053;-64
2023/12/25 10:42:58;;;;;;;20.23;13.20;;;19.50;88.60;;;;;;5009349;28;20096;-64
2023/12/25 10:45:25;;;;;;;18.92;12.35;;;19.50;88.60;;;;;;5027247;28;20096;-64
2023/12/25 10:47:55;;;;;;;18.67;12.57;;;19.40;88.60;;;;;;4991375;28;20056;-64
2023/12/25 10:50:25;;;;;;;16.92;11.98;;;19.50;88.70;;;;;;4977222;28;20573;-63
2023/12/25 10:52:51;;;;;;;18.35;10.85;;;19.40;88.70;;;;;;5007519;28;20042;-64
2023/12/25 10:55:39;;;;;;;19.08;10.95;;;19.60;85.10;;;;;;5021225;28;20399;-65
2023/12/25 10:58:05;;;;;;;14.50;9.43;;;;;;;;;;5005645;28;20048;-64
2023/12/25 11:00:33;;;;;;;15.13;9.15;;;19.20;88.70;;;;;;5002808;28;20054;-65
2023/12/25 11:03:01;;;;;;;14.82;8.30;;;19.20;88.60;;;;;;5018239;28;20069;-64
2023/12/25 11:05:27;;;;;;;20.80;11.30;;;19.30;88.50;;;;;;4986196;28;20045;-64
2023/12/25 11:07:53;;;;;;;24.98;14.15;;;;;;;;;;4997804;28;20543;-64
2023/12/25 11:10:19;;;;;;;32.45;27.00;;;19.40;88.40;;;;;;5047504;28;20038;-64
2023/12/25 11:12:45;;;;;;;27.55;21.88;;;19.40;88.20;;;;;;5015660;28;20503;-64
2023/12/25 11:15:11;;;;;;;23.08;18.05;;;19.50;88.20;;;;;;5012636;28;20104;-63
2023/12/25 11:17:38;;;;;;;22.88;16.95;;;19.40;88.10;;;;;;5015036;28;20081;-64
2023/12/25 11:20:08;;;;;;;17.05;14.50;;;19.40;88.10;;;;;;5014369;28;20058;-63
2023/12/25 11:22:36;;;;;;;16.80;12.98;;;19.40;88.00;;;;;;5014134;28;20050;-63
2023/12/25 11:25:02;;;;;;;18.83;13.25;;;19.30;88.00;;;;;;5014466;28;20049;-64
2023/12/25 11:27:29;;;;;;;18.10;12.82;;;;;;;;;;4997306;28;20132;-62
2023/12/25 11:30:07;;;;;;;15.73;11.32;;;19.30;88.00;;;;;;4997469;28;20049;-63
2023/12/25 11:32:35;;;;;;;16.83;10.95;;;19.30;88.10;;;;;;4998186;28;20056;-63
2023/12/25 11:35:01;;;;;;;56.97;51.72;;;19.20;88.10;;;;;;5030332;28;20065;-62
2023/12/25 11:37:28;;;;;;;48.92;43.85;;;19.20;88.10;;;;;;5013222;28;20038;-63
2023/12/25 11:39:59;;;;;;;40.45;36.35;;;19.20;83.80;;;;;;5014029;28;20404;-65
2023/12/25 11:42:25;;;;;;;36.30;32.40;;;19.20;84.60;;;;;;5013742;28;20045;-63
2023/12/25 11:44:54;;;;;;;33.50;30.00;;;19.20;88.10;;;;;;4996263;28;20085;-64
2023/12/25 11:47:39;;;;;;;34.30;26.65;;;18.90;85.20;;;;;;4996078;28;20594;-65
2023/12/25 11:50:09;;;;;;;24.42;21.95;;;19.20;87.50;;;;;;5045488;28;20163;-65
2023/12/25 11:52:56;;;;;;;24.23;20.50;;;19.00;83.60;;;;;;5012263;28;20519;-63
2023/12/25 11:55:23;;;;;;;21.13;18.92;;;19.00;85.20;;;;;;5014036;28;20404;-64
2023/12/25 11:57:52;;;;;;;21.65;19.45;;;19.20;87.80;;;;;;4996064;28;20045;-65
2023/12/25 12:00:21;;;;;;;25.90;23.30;;;19.00;87.60;;;;;;5009984;28;20369;-65
2023/12/25 12:02:47;;;;;;;43.53;39.75;;;19.20;87.70;;;;;;5014201;28;20049;-63
2023/12/25 12:05:13;;;;;;;30.55;27.50;;;19.20;87.70;;;;;;5013756;28;20139;-63
2023/12/25 12:07:39;;;;;;;24.05;21.52;;;19.20;87.60;;;;;;5013337;28;20488;-64
2023/12/25 12:10:06;;;;;;;23.05;20.48;;;;;;;;;;5012712;28;20056;-63
2023/12/25 12:12:31;;;;;;;21.15;19.00;;;19.10;87.50;;;;;;5012371;28;20129;-63
2023/12/25 12:14:57;;;;;;;20.25;17.63;;;19.10;87.60;;;;;;4980006;28;20124;-63
2023/12/25 12:17:23;;;;;;;18.42;15.90;;;;;;;;;;4996053;28;20559;-63
2023/12/25 12:19:49;;;;;;;17.83;15.35;;;19.10;87.70;;;;;;4995754;28;20050;-65
2023/12/25 12:22:18;;;;;;;16.15;13.57;;;19.20;87.80;;;;;;5011070;28;20400;-65
2023/12/25 12:24:44;;;;;;;15.70;13.43;;;19.00;87.70;;;;;;4996435;28;20077;-63
2023/12/25 12:27:12;;;;;;;17.25;12.65;;;19.20;87.00;;;;;;5009324;28;20119;-64
2023/12/25 12:29:39;;;;;;;30.58;27.45;;;19.00;87.80;;;;;;5009101;28;20049;-64
2023/12/25 12:32:08;;;;;;;26.60;24.02;;;19.00;87.80;;;;;;5008890;28;20400;-63
2023/12/25 12:34:34;;;;;;;23.40;20.77;;;19.00;87.80;;;;;;4977154;28;20042;-63
2023/12/25 12:37:02;;;;;;;20.17;18.05;;;18.90;87.80;;;;;;5010977;28;20052;-64
2023/12/25 12:39:28;;;;;;;21.40;17.20;;;19.10;87.80;;;;;;5004919;28;20040;-63
2023/12/25 12:41:54;;;;;;;22.73;16.25;;;18.90;87.60;;;;;;5001747;28;20054;-63
2023/12/25 12:44:20;;;;;;;16.48;14.73;;;19.10;87.70;;;;;;5003597;28;20056;-64
2023/12/25 12:46:46;;;;;;;19.38;13.48;;;19.00;87.70;;;;;;4988775;28;20504;-63
2023/12/25 12:49:11;;;;;;;16.45;13.00;;;19.20;85.80;;;;;;5039588;28;20076;-65
2023/12/25 12:51:38;;;;;;;16.42;11.43;;;;;;;;;;5003182;28;20042;-63